Time;durP1;ratioP1;P1;durP2;ratioP2;P2;SDS_P1;SDS_P2;PMS_P1;PMS_P2;Temp;Humidity;BMP_temperature;BMP_pressure;BME280_temperature;BME280_humidity;BME280_pressure;Samples;Min_cycle;Max_cycle;Signal;HPM_P1;HPM_P2
2021/12/28 00:01:27;;;;;;;10.77;3.13;;;17.30;71.00;;;;;;5051003;28;20028;-85
2021/12/28 00:03:53;;;;;;;10.63;3.10;;;17.30;70.90;;;;;;5033474;28;20025;-85
2021/12/28 00:06:19;;;;;;;9.98;2.58;;;17.30;70.90;;;;;;5051122;28;20391;-85
2021/12/28 00:08:46;;;;;;;11.25;3.15;;;17.30;71.00;;;;;;5051357;28;20027;-85
2021/12/28 00:11:13;;;;;;;7.30;2.85;;;17.30;70.90;;;;;;5050863;28;20108;-83
2021/12/28 00:13:40;;;;;;;8.52;2.45;;;17.30;71.10;;;;;;5051442;28;20091;-83
2021/12/28 00:18:37;;;;;;;12.30;4.03;;;17.30;71.10;;;;;;5050976;28;20036;-84
2021/12/28 00:21:05;;;;;;;11.20;2.95;;;17.30;71.20;;;;;;5051121;28;20025;-84
2021/12/28 00:23:39;;;;;;;9.82;2.78;;;17.20;71.10;;;;;;5032902;28;20852;-84
2021/12/28 00:26:13;;;;;;;9.63;2.58;;;17.20;71.10;;;;;;5051020;28;20044;-84
2021/12/28 00:28:40;;;;;;;7.78;3.20;;;17.20;71.10;;;;;;5051480;28;20090;-83
2021/12/28 00:31:06;;;;;;;11.77;2.80;;;17.20;71.10;;;;;;5051119;28;20048;-84
2021/12/28 00:33:32;;;;;;;7.90;2.50;;;17.20;71.20;;;;;;5050655;28;20029;-83
2021/12/28 00:35:58;;;;;;;9.25;2.53;;;17.20;71.20;;;;;;5050849;28;20406;-83
2021/12/28 00:38:26;;;;;;;7.70;3.00;;;17.20;71.20;;;;;;5050699;28;20031;-84
2021/12/28 00:40:55;;;;;;;9.20;2.72;;;17.20;71.30;;;;;;5050871;28;20021;-82
2021/12/28 00:43:21;;;;;;;9.50;3.13;;;17.20;71.30;;;;;;5032779;28;20079;-85
2021/12/28 00:45:48;;;;;;;9.50;2.60;;;17.20;71.30;;;;;;5050777;28;20555;-84
2021/12/28 00:48:14;;;;;;;11.63;3.10;;;17.20;71.30;;;;;;5050561;28;20025;-85
2021/12/28 00:50:41;;;;;;;9.15;2.20;;;17.20;71.30;;;;;;5051208;28;20017;-84
2021/12/28 00:53:07;;;;;;;12.00;2.85;;;17.30;71.40;;;;;;5051008;28;20036;-85
2021/12/28 00:55:33;;;;;;;7.63;2.60;;;17.20;71.30;;;;;;5050301;28;20036;-84
2021/12/28 00:57:59;;;;;;;12.15;2.90;;;17.20;71.30;;;;;;5032961;28;20552;-85
2021/12/28 01:00:28;;;;;;;7.88;2.30;;;17.20;71.30;;;;;;5052435;28;20013;-84
2021/12/28 01:02:54;;;;;;;8.90;3.03;;;17.20;71.40;;;;;;5054646;28;20025;-85
2021/12/28 01:05:20;;;;;;;12.15;2.83;;;17.20;71.30;;;;;;5054245;28;20029;-83
2021/12/28 01:07:46;;;;;;;9.18;3.30;;;17.20;71.30;;;;;;5054423;28;20036;-85
2021/12/28 01:10:16;;;;;;;9.18;3.20;;;17.20;71.30;;;;;;5036264;28;20209;-84
2021/12/28 01:12:42;;;;;;;10.05;3.42;;;17.20;71.30;;;;;;5036518;28;20477;-83
2021/12/28 01:15:10;;;;;;;8.77;3.08;;;17.20;71.30;;;;;;5054588;28;20501;-82
2021/12/28 01:17:37;;;;;;;11.32;2.80;;;17.20;71.30;;;;;;5054006;28;20021;-84
2021/12/28 01:20:05;;;;;;;8.40;2.58;;;17.20;71.40;;;;;;5054273;28;20146;-84
2021/12/28 01:22:32;;;;;;;8.25;2.53;;;17.20;71.40;;;;;;5053952;28;20115;-84
2021/12/28 01:24:58;;;;;;;8.27;2.65;;;17.20;71.40;;;;;;5054176;28;20090;-85
2021/12/28 01:27:23;;;;;;;8.15;2.60;;;17.20;71.30;;;;;;5054005;28;20025;-83
2021/12/28 01:29:49;;;;;;;9.05;2.78;;;17.20;71.40;;;;;;5054099;28;20100;-84
2021/12/28 01:32:15;;;;;;;8.73;2.53;;;17.20;71.50;;;;;;5035776;28;20021;-84
2021/12/28 01:34:41;;;;;;;12.23;3.05;;;17.20;71.50;;;;;;5054139;28;20083;-82
2021/12/28 01:37:07;;;;;;;8.00;2.33;;;17.20;71.40;;;;;;5054252;28;20388;-86
2021/12/28 01:39:33;;;;;;;8.38;2.60;;;17.20;71.60;;;;;;5053633;28;20036;-85
2021/12/28 01:42:02;;;;;;;10.25;3.10;;;17.20;71.60;;;;;;5053940;28;20029;-85
2021/12/28 01:44:29;;;;;;;9.10;2.70;;;17.20;71.60;;;;;;5053749;28;20048;-86
2021/12/28 01:46:55;;;;;;;8.98;2.60;;;17.20;71.60;;;;;;5054706;28;20031;-88
2021/12/28 01:49:21;;;;;;;7.88;2.47;;;17.20;71.60;;;;;;5054436;28;20036;-88
2021/12/28 01:51:47;;;;;;;8.27;2.75;;;17.20;71.70;;;;;;5036736;28;20028;-88
2021/12/28 01:54:13;;;;;;;9.35;3.00;;;17.20;71.70;;;;;;5054335;28;20450;-88
2021/12/28 01:56:44;;;;;;;8.93;3.15;;;17.20;71.70;;;;;;5054785;28;20143;-88
2021/12/28 01:59:13;;;;;;;10.73;2.88;;;17.20;71.70;;;;;;5054556;28;20048;-87
2021/12/28 02:01:39;;;;;;;9.73;2.15;;;17.20;71.70;;;;;;5054455;28;20052;-87
2021/12/28 02:04:23;;;;;;;9.45;2.58;;;17.20;71.70;;;;;;5053891;28;20100;-86
2021/12/28 02:06:50;;;;;;;8.13;2.70;;;17.20;71.70;;;;;;5054043;28;20138;-87
2021/12/28 02:09:17;;;;;;;7.97;2.58;;;17.20;71.70;;;;;;5053447;28;20017;-88
2021/12/28 02:11:43;;;;;;;7.45;2.50;;;17.10;71.60;;;;;;5052854;28;20037;-87
2021/12/28 02:14:09;;;;;;;7.85;2.38;;;17.10;71.60;;;;;;5054332;28;20157;-88
2021/12/28 02:16:37;;;;;;;8.60;2.53;;;17.10;71.50;;;;;;5053760;28;20050;-88
2021/12/28 02:19:06;;;;;;;7.72;2.15;;;17.20;71.70;;;;;;5053616;28;20457;-87
2021/12/28 02:21:32;;;;;;;9.85;3.33;;;17.20;71.70;;;;;;5053236;28;20464;-88
2021/12/28 02:23:59;;;;;;;6.88;2.20;;;17.10;71.80;;;;;;5053490;28;20029;-88
2021/12/28 02:26:25;;;;;;;7.82;2.20;;;17.20;71.80;;;;;;5035313;28;20101;-88
2021/12/28 02:28:51;;;;;;;6.65;1.90;;;17.10;71.70;;;;;;5035815;28;20021;-87
2021/12/28 02:31:17;;;;;;;12.05;2.65;;;17.10;71.70;;;;;;5035639;28;20033;-89
2021/12/28 02:33:45;;;;;;;7.57;2.80;;;17.10;71.80;;;;;;5053699;28;20040;-87
2021/12/28 02:36:11;;;;;;;8.38;2.47;;;17.10;71.80;;;;;;5053823;28;20075;-80
2021/12/28 02:38:36;;;;;;;7.25;2.60;;;17.10;71.90;;;;;;5053908;28;20036;-89
2021/12/28 02:41:03;;;;;;;5.85;2.38;;;17.10;71.90;;;;;;5053569;28;20028;-87
2021/12/28 02:43:29;;;;;;;6.53;1.90;;;17.10;71.90;;;;;;5053342;28;20014;-89
2021/12/28 02:46:02;;;;;;;8.60;2.45;;;17.10;72.00;;;;;;5053347;28;20037;-89
2021/12/28 02:48:29;;;;;;;8.93;1.90;;;17.10;71.90;;;;;;5035359;28;20026;-88
2021/12/28 02:51:06;;;;;;;9.05;2.28;;;17.10;71.90;;;;;;5053362;28;20036;-88
2021/12/28 02:53:33;;;;;;;6.75;1.95;;;17.10;72.00;;;;;;5053032;28;20058;-88
2021/12/28 02:55:59;;;;;;;8.13;2.50;;;17.10;72.00;;;;;;5035680;28;20047;-89
2021/12/28 02:58:41;;;;;;;7.25;1.98;;;17.10;72.00;;;;;;5053002;28;20099;-89
2021/12/28 03:01:13;;;;;;;5.93;1.90;;;17.10;72.10;;;;;;5053380;28;20021;-87
2021/12/28 03:03:41;;;;;;;8.63;1.98;;;17.10;72.10;;;;;;5053396;28;20036;-87
2021/12/28 03:06:09;;;;;;;7.88;2.75;;;17.10;72.10;;;;;;5035286;28;20032;-86
2021/12/28 03:08:40;;;;;;;6.22;1.92;;;17.10;72.00;;;;;;5052581;28;20086;-88
2021/12/28 03:11:08;;;;;;;6.03;1.83;;;17.10;72.00;;;;;;5052952;28;20025;-87
2021/12/28 03:13:39;;;;;;;9.63;2.63;;;17.10;71.90;;;;;;5067811;28;20138;-87
2021/12/28 03:16:06;;;;;;;7.22;2.03;;;17.10;71.90;;;;;;5052661;28;20477;-86
2021/12/28 03:18:32;;;;;;;6.25;2.20;;;17.10;72.00;;;;;;5034587;28;20114;-89
2021/12/28 03:20:58;;;;;;;7.22;2.58;;;17.10;72.00;;;;;;5035019;28;20029;-88
2021/12/28 03:23:26;;;;;;;6.53;2.60;;;17.10;72.10;;;;;;5052333;28;20025;-87
2021/12/28 03:25:53;;;;;;;5.75;1.92;;;17.10;72.10;;;;;;5052568;28;20017;-89
2021/12/28 03:28:25;;;;;;;5.30;1.73;;;17.10;72.10;;;;;;5052276;28;20104;-88
2021/12/28 03:30:55;;;;;;;6.20;2.00;;;17.10;72.10;;;;;;5052469;28;20032;-88
2021/12/28 03:33:23;;;;;;;7.18;2.00;;;17.10;72.10;;;;;;5052113;28;20036;-87
2021/12/28 03:35:49;;;;;;;9.00;2.55;;;17.10;72.20;;;;;;5052277;28;20029;-86
2021/12/28 03:38:15;;;;;;;6.93;2.03;;;17.10;72.20;;;;;;5052160;28;20558;-87
2021/12/28 03:40:41;;;;;;;6.88;1.77;;;17.10;72.20;;;;;;5034518;28;20032;-82
2021/12/28 03:43:07;;;;;;;5.38;1.80;;;17.10;72.20;;;;;;5052488;28;20079;-87
2021/12/28 03:45:33;;;;;;;5.45;1.73;;;17.10;72.20;;;;;;5052111;28;20045;-88
2021/12/28 03:47:59;;;;;;;7.30;2.03;;;17.10;72.30;;;;;;5052104;28;20022;-88
2021/12/28 03:50:25;;;;;;;5.90;1.85;;;17.10;72.30;;;;;;5051791;28;20590;-88
2021/12/28 03:52:55;;;;;;;6.53;2.28;;;17.10;72.30;;;;;;5051850;28;20102;-87
2021/12/28 03:55:23;;;;;;;5.43;1.63;;;17.10;72.30;;;;;;5051645;28;20048;-88
2021/12/28 03:57:49;;;;;;;5.72;1.98;;;17.10;72.40;;;;;;5052053;28;20021;-88
2021/12/28 04:00:18;;;;;;;8.18;2.10;;;17.10;72.40;;;;;;5051560;28;20027;-87
2021/12/28 04:02:44;;;;;;;4.20;1.88;;;17.10;72.40;;;;;;5051880;28;20071;-86
2021/12/28 04:05:10;;;;;;;6.55;2.20;;;17.10;72.30;;;;;;5051982;28;20048;-87
2021/12/28 04:07:37;;;;;;;4.65;1.95;;;17.10;72.30;;;;;;5051991;28;20033;-88
2021/12/28 04:10:04;;;;;;;7.00;1.80;;;17.10;72.30;;;;;;5051728;28;20009;-87
2021/12/28 04:12:31;;;;;;;7.38;2.08;;;17.10;72.20;;;;;;5051506;28;20032;-87
2021/12/28 04:14:57;;;;;;;6.40;1.60;;;17.10;72.30;;;;;;5067132;28;20481;-86
2021/12/28 04:17:25;;;;;;;9.38;2.20;;;17.10;72.30;;;;;;5051518;28;20159;-85
2021/12/28 04:19:50;;;;;;;6.18;1.45;;;17.10;72.40;;;;;;5051621;28;20037;-87
2021/12/28 04:22:16;;;;;;;5.57;1.55;;;17.10;72.40;;;;;;5051303;28;20030;-88
2021/12/28 04:24:42;;;;;;;6.35;1.98;;;17.00;72.40;;;;;;5051715;28;20029;-85
2021/12/28 04:27:08;;;;;;;3.97;1.38;;;17.00;72.30;;;;;;5052240;28;20021;-87
2021/12/28 04:29:34;;;;;;;3.75;1.38;;;17.10;72.40;;;;;;5051893;28;20075;-87
2021/12/28 04:32:00;;;;;;;6.43;1.90;;;17.10;72.40;;;;;;5051957;28;20049;-85
2021/12/28 04:34:25;;;;;;;6.25;1.58;;;17.00;72.40;;;;;;5052535;28;20400;-88
2021/12/28 04:36:51;;;;;;;4.13;1.23;;;17.10;72.50;;;;;;5056366;28;20071;-86
2021/12/28 04:39:17;;;;;;;4.47;1.25;;;17.10;72.50;;;;;;5056349;28;20024;-87
2021/12/28 04:41:43;;;;;;;5.82;1.67;;;17.10;72.50;;;;;;5056172;28;20479;-85
2021/12/28 04:44:12;;;;;;;4.07;1.45;;;17.00;72.50;;;;;;5056156;28;20059;-87
2021/12/28 04:46:38;;;;;;;3.80;1.50;;;17.00;72.60;;;;;;5056175;28;20029;-86
2021/12/28 04:49:04;;;;;;;8.18;2.03;;;17.10;72.60;;;;;;5056061;28;20063;-84
2021/12/28 04:51:30;;;;;;;4.63;1.23;;;17.00;72.60;;;;;;5056068;28;20461;-88
2021/12/28 04:53:57;;;;;;;5.07;1.75;;;17.10;72.60;;;;;;5056030;28;20025;-88
2021/12/28 04:56:23;;;;;;;8.48;1.60;;;17.00;72.60;;;;;;5055888;28;20044;-88
2021/12/28 04:58:49;;;;;;;4.45;1.30;;;17.10;72.70;;;;;;5055834;28;20025;-88
2021/12/28 05:01:15;;;;;;;4.65;1.10;;;17.10;72.70;;;;;;5038017;28;20087;-87
2021/12/28 05:03:41;;;;;;;3.60;1.30;;;17.10;72.70;;;;;;5055968;28;20040;-88
2021/12/28 05:06:06;;;;;;;2.50;1.10;;;17.00;72.70;;;;;;5055774;28;20029;-86
2021/12/28 05:08:32;;;;;;;3.88;0.90;;;17.10;72.70;;;;;;5055736;28;20025;-87
2021/12/28 05:10:58;;;;;;;3.83;1.20;;;17.00;72.60;;;;;;5037811;28;20399;-88
2021/12/28 05:13:24;;;;;;;3.45;1.25;;;17.00;72.60;;;;;;5055558;28;20058;-88
2021/12/28 05:15:52;;;;;;;3.28;1.08;;;17.00;72.70;;;;;;5055530;28;20460;-87
2021/12/28 05:18:17;;;;;;;5.00;1.63;;;17.00;72.70;;;;;;5055486;28;20124;-87
2021/12/28 05:20:44;;;;;;;4.03;1.20;;;17.00;72.70;;;;;;5055557;28;20052;-87
2021/12/28 05:23:11;;;;;;;4.25;1.30;;;17.00;72.70;;;;;;5055894;28;20384;-87
2021/12/28 05:25:36;;;;;;;4.90;1.35;;;17.00;72.70;;;;;;5055144;28;20032;-88
2021/12/28 05:28:03;;;;;;;3.40;0.98;;;17.00;72.70;;;;;;5055232;28;20017;-87
2021/12/28 05:30:29;;;;;;;3.58;1.52;;;17.00;72.70;;;;;;5055181;28;20029;-87
2021/12/28 05:32:55;;;;;;;3.65;1.08;;;17.00;72.70;;;;;;5055257;28;20040;-87
2021/12/28 05:35:21;;;;;;;4.57;1.75;;;17.00;72.80;;;;;;5055232;28;20032;-88
2021/12/28 05:37:46;;;;;;;3.97;1.35;;;17.00;72.80;;;;;;5055293;28;20029;-88
2021/12/28 05:40:13;;;;;;;4.15;1.10;;;17.00;72.90;;;;;;5055278;28;20025;-87
2021/12/28 05:42:39;;;;;;;4.55;1.38;;;17.00;72.90;;;;;;5055014;28;20035;-88
2021/12/28 05:45:06;;;;;;;5.82;1.55;;;17.00;72.90;;;;;;5054877;28;20112;-87
2021/12/28 05:47:32;;;;;;;4.05;1.25;;;17.00;73.00;;;;;;5053774;28;20104;-87
2021/12/28 05:49:58;;;;;;;2.30;0.80;;;17.00;72.90;;;;;;5054781;28;20029;-88
2021/12/28 05:52:23;;;;;;;3.85;1.20;;;17.00;73.00;;;;;;5054527;28;20047;-87
2021/12/28 05:54:49;;;;;;;3.30;1.00;;;17.00;73.00;;;;;;5054646;28;20025;-87
2021/12/28 05:57:15;;;;;;;3.53;1.00;;;17.00;73.00;;;;;;5054900;28;20476;-88
2021/12/28 05:59:41;;;;;;;3.70;1.00;;;17.00;73.00;;;;;;5054846;28;20071;-85
2021/12/28 06:02:07;;;;;;;4.50;1.10;;;17.00;73.10;;;;;;5054530;28;20025;-87
2021/12/28 06:04:33;;;;;;;2.88;0.95;;;17.00;73.00;;;;;;5054389;28;20033;-88
2021/12/28 06:06:59;;;;;;;3.33;1.00;;;17.00;73.00;;;;;;5054512;28;20021;-87
2021/12/28 06:09:24;;;;;;;3.72;1.40;;;17.00;72.90;;;;;;5054357;28;20021;-87
2021/12/28 06:11:50;;;;;;;2.45;0.80;;;17.00;72.90;;;;;;5054330;28;21971;-87
2021/12/28 06:14:16;;;;;;;4.40;1.05;;;17.00;73.00;;;;;;5054798;28;20025;-88
2021/12/28 06:16:41;;;;;;;2.42;1.17;;;17.00;73.00;;;;;;5054264;28;20380;-88
2021/12/28 06:19:07;;;;;;;2.13;0.73;;;17.00;73.10;;;;;;5054205;28;20110;-87
2021/12/28 06:21:34;;;;;;;1.92;0.73;;;17.00;73.00;;;;;;5054230;28;20435;-87
2021/12/28 06:24:01;;;;;;;2.30;0.80;;;17.00;73.10;;;;;;5054029;28;20530;-88
2021/12/28 06:26:27;;;;;;;4.30;1.05;;;17.00;73.80;;;;;;5054356;28;20021;-89
2021/12/28 06:28:53;;;;;;;2.28;0.70;;;17.00;73.10;;;;;;5054402;28;20059;-89
2021/12/28 06:31:19;;;;;;;3.60;0.85;;;17.00;73.10;;;;;;5054252;28;20108;-87
2021/12/28 06:33:45;;;;;;;2.55;0.88;;;17.00;73.10;;;;;;5054581;28;20038;-89
2021/12/28 06:36:10;;;;;;;2.50;0.70;;;17.00;73.20;;;;;;5069601;28;20472;-87
2021/12/28 06:38:36;;;;;;;1.80;0.95;;;17.00;73.20;;;;;;5053936;28;20025;-88
2021/12/28 06:41:02;;;;;;;3.65;0.88;;;17.00;73.30;;;;;;5054022;28;20021;-87
2021/12/28 06:43:28;;;;;;;2.53;0.73;;;17.00;73.30;;;;;;5053808;28;20044;-89
2021/12/28 06:45:55;;;;;;;3.25;1.58;;;17.00;73.20;;;;;;5053725;28;20396;-88
2021/12/28 06:48:21;;;;;;;1.77;0.80;;;17.00;73.40;;;;;;5036171;28;20029;-87
2021/12/28 06:50:47;;;;;;;2.85;0.68;;;17.00;73.30;;;;;;5053848;28;20100;-87
2021/12/28 06:53:13;;;;;;;2.05;0.50;;;17.00;73.50;;;;;;5035722;28;20120;-87
2021/12/28 06:55:39;;;;;;;2.03;0.90;;;17.00;73.50;;;;;;5053762;28;20039;-87
2021/12/28 06:58:05;;;;;;;2.83;0.95;;;17.00;73.50;;;;;;5053172;28;20518;-88
2021/12/28 07:00:31;;;;;;;2.65;0.77;;;17.00;73.50;;;;;;5053657;28;20024;-88
2021/12/28 07:02:57;;;;;;;4.03;0.70;;;17.00;73.50;;;;;;5053600;28;20035;-88
2021/12/28 07:05:22;;;;;;;3.22;0.68;;;17.00;73.40;;;;;;5053655;28;20384;-88
2021/12/28 07:07:48;;;;;;;1.33;0.47;;;17.00;73.40;;;;;;5053748;28;20029;-88
2021/12/28 07:10:14;;;;;;;2.13;0.60;;;17.00;73.50;;;;;;5053356;28;20021;-88
2021/12/28 07:12:41;;;;;;;3.13;0.70;;;17.00;73.40;;;;;;5053479;28;20917;-88
2021/12/28 07:15:07;;;;;;;1.42;0.70;;;17.00;73.40;;;;;;5053388;28;20021;-89
2021/12/28 07:17:33;;;;;;;2.58;0.47;;;17.00;73.40;;;;;;5053371;28;20032;-88
2021/12/28 07:19:58;;;;;;;4.30;0.73;;;17.00;73.40;;;;;;5053200;28;20017;-87
2021/12/28 07:22:24;;;;;;;2.22;0.60;;;17.00;73.50;;;;;;5053228;28;20029;-88
2021/12/28 07:24:50;;;;;;;1.50;0.60;;;17.00;73.40;;;;;;5053506;28;20025;-88
2021/12/28 07:27:15;;;;;;;1.20;0.50;;;17.00;73.40;;;;;;5053136;28;20033;-88
2021/12/28 07:29:41;;;;;;;2.08;0.52;;;17.00;73.60;;;;;;5053030;28;20563;-88
2021/12/28 07:32:08;;;;;;;3.40;0.70;;;17.00;73.60;;;;;;5052930;28;20036;-89
2021/12/28 07:34:34;;;;;;;2.05;0.85;;;17.00;73.70;;;;;;5052760;28;20021;-89
2021/12/28 07:37:00;;;;;;;2.20;0.77;;;17.00;73.60;;;;;;5035322;28;20021;-89
2021/12/28 07:39:27;;;;;;;2.15;0.63;;;17.00;73.80;;;;;;5035375;28;20032;-86
2021/12/28 07:41:53;;;;;;;1.67;0.70;;;17.00;73.80;;;;;;5035263;28;20029;-83
2021/12/28 07:44:18;;;;;;;1.45;0.60;;;17.00;73.90;;;;;;5053211;28;20028;-88
2021/12/28 07:46:44;;;;;;;1.48;0.43;;;17.00;73.90;;;;;;5052639;28;20047;-89
2021/12/28 07:49:10;;;;;;;2.15;0.60;;;17.00;74.00;;;;;;5052713;28;20139;-88
2021/12/28 07:51:35;;;;;;;2.35;0.70;;;16.90;73.90;;;;;;5052520;28;20466;-89
2021/12/28 07:54:02;;;;;;;1.00;0.60;;;17.00;74.00;;;;;;5052698;28;20033;-89
2021/12/28 07:56:27;;;;;;;2.60;0.98;;;16.90;73.90;;;;;;5034964;28;20511;-88
2021/12/28 07:58:53;;;;;;;1.60;0.50;;;17.00;74.00;;;;;;5052635;28;20029;-78
2021/12/28 08:01:19;;;;;;;0.95;0.70;;;16.90;73.80;;;;;;5052738;28;20021;-88
2021/12/28 08:03:45;;;;;;;3.15;0.70;;;17.00;73.90;;;;;;5052721;28;20029;-89
2021/12/28 08:06:10;;;;;;;1.88;0.50;;;16.90;73.80;;;;;;5052493;28;20099;-89
2021/12/28 08:08:36;;;;;;;2.92;0.70;;;16.90;73.70;;;;;;5052397;28;20039;-88
2021/12/28 08:11:02;;;;;;;1.67;0.50;;;16.90;73.80;;;;;;5051928;28;20510;-88
2021/12/28 08:13:28;;;;;;;2.03;0.65;;;17.00;73.60;;;;;;5052393;28;20033;-88
2021/12/28 08:15:55;;;;;;;2.72;0.40;;;17.00;73.70;;;;;;5052596;28;20134;-88
2021/12/28 08:18:20;;;;;;;2.17;0.70;;;17.00;73.70;;;;;;5052594;28;20056;-89
2021/12/28 08:20:46;;;;;;;1.77;0.50;;;16.90;73.70;;;;;;5052050;28;20049;-87
2021/12/28 08:23:12;;;;;;;1.35;0.50;;;16.90;73.70;;;;;;5052211;28;20086;-88
2021/12/28 08:25:39;;;;;;;2.97;0.73;;;16.90;74.00;;;;;;5034497;28;20025;-88
2021/12/28 08:28:06;;;;;;;2.17;0.57;;;16.90;74.00;;;;;;5052105;28;20028;-88
2021/12/28 08:30:35;;;;;;;2.80;0.55;;;16.90;74.10;;;;;;5052096;28;20025;-84
2021/12/28 08:33:02;;;;;;;2.15;0.70;;;16.90;74.20;;;;;;5050655;28;20135;-85
2021/12/28 08:35:28;;;;;;;1.98;0.40;;;16.90;74.20;;;;;;5034273;28;20017;-86
2021/12/28 08:37:53;;;;;;;4.50;0.70;;;16.90;74.40;;;;;;5033863;28;20033;-81
2021/12/28 08:40:20;;;;;;;1.90;0.80;;;16.90;74.30;;;;;;5051409;28;20025;-80
2021/12/28 08:42:46;;;;;;;2.58;0.60;;;16.90;74.20;;;;;;5051490;28;20167;-81
2021/12/28 08:45:12;;;;;;;1.45;0.60;;;16.90;74.40;;;;;;5051272;28;20499;-81
2021/12/28 08:47:38;;;;;;;2.78;0.75;;;16.90;74.30;;;;;;5051539;28;20059;-88
2021/12/28 08:50:07;;;;;;;3.03;0.88;;;16.90;74.40;;;;;;5051395;28;20017;-84
2021/12/28 08:52:32;;;;;;;3.03;0.60;;;16.90;74.40;;;;;;5051308;28;20033;-87
2021/12/28 08:54:58;;;;;;;2.55;0.60;;;16.90;74.40;;;;;;5051450;28;20071;-88
2021/12/28 08:57:24;;;;;;;2.15;0.65;;;16.90;74.40;;;;;;5042680;28;20037;-82
2021/12/28 08:59:49;;;;;;;3.97;1.08;;;16.90;74.40;;;;;;5047500;28;20112;-86
2021/12/28 09:02:16;;;;;;;1.88;0.70;;;16.90;74.50;;;;;;5051477;28;20381;-87
2021/12/28 09:04:43;;;;;;;2.17;0.90;;;16.90;74.60;;;;;;5051714;28;20025;-87
2021/12/28 09:07:13;;;;;;;3.05;0.77;;;16.90;74.60;;;;;;5051710;28;20025;-87
2021/12/28 09:09:38;;;;;;;3.70;0.82;;;16.90;74.50;;;;;;5051653;28;20017;-85
2021/12/28 09:12:05;;;;;;;3.00;0.80;;;16.90;74.60;;;;;;5051632;28;20387;-85
2021/12/28 09:14:32;;;;;;;2.05;0.63;;;16.90;74.60;;;;;;5033931;28;20021;-88
2021/12/28 09:16:58;;;;;;;2.25;0.60;;;16.90;74.80;;;;;;5034084;28;20025;-82
2021/12/28 09:19:24;;;;;;;1.92;0.57;;;16.90;74.70;;;;;;5051995;28;20025;-86
2021/12/28 09:21:49;;;;;;;3.53;0.60;;;16.90;74.80;;;;;;5054140;28;20019;-88
2021/12/28 09:24:15;;;;;;;2.05;0.68;;;16.90;75.60;;;;;;5037646;28;20039;-87
2021/12/28 09:26:40;;;;;;;1.98;0.40;;;16.90;74.90;;;;;;5055179;28;20181;-86
2021/12/28 09:29:06;;;;;;;3.15;0.63;;;16.90;74.90;;;;;;5055213;28;20052;-87
2021/12/28 09:31:33;;;;;;;1.95;0.60;;;17.00;75.10;;;;;;5055024;28;20017;-88
2021/12/28 09:33:59;;;;;;;5.25;0.93;;;16.90;75.10;;;;;;5054908;28;20044;-86
2021/12/28 09:36:25;;;;;;;2.97;0.75;;;16.90;75.10;;;;;;5055265;28;20099;-85
2021/12/28 09:38:51;;;;;;;4.90;1.15;;;16.90;75.10;;;;;;5054795;28;20037;-87
2021/12/28 09:41:16;;;;;;;3.50;0.80;;;16.90;75.00;;;;;;5054813;28;20025;-87
2021/12/28 09:43:43;;;;;;;5.90;1.30;;;16.90;75.00;;;;;;5054932;28;20029;-87
2021/12/28 09:46:09;;;;;;;5.18;1.25;;;16.90;75.00;;;;;;5054265;28;20078;-86
2021/12/28 09:48:35;;;;;;;6.65;1.25;;;16.90;75.00;;;;;;5036786;28;20028;-86
2021/12/28 09:51:03;;;;;;;5.30;1.48;;;16.90;74.90;;;;;;5054574;28;20036;-87
2021/12/28 09:53:29;;;;;;;8.82;1.98;;;16.90;74.80;;;;;;5054736;28;20037;-79
2021/12/28 09:55:54;;;;;;;6.07;1.40;;;16.90;74.90;;;;;;5054953;28;20127;-85
2021/12/28 09:58:20;;;;;;;8.32;1.70;;;16.90;74.80;;;;;;5054503;28;20116;-89
2021/12/28 10:00:46;;;;;;;7.10;1.92;;;16.90;74.80;;;;;;5054557;28;20029;-87
2021/12/28 10:03:13;;;;;;;9.00;1.85;;;16.90;74.70;;;;;;5054739;28;20021;-87
2021/12/28 10:05:39;;;;;;;7.60;2.15;;;16.90;74.60;;;;;;5037056;28;20021;-89
2021/12/28 10:08:05;;;;;;;11.18;2.65;;;16.90;74.50;;;;;;5054657;28;20025;-87
2021/12/28 10:10:38;;;;;;;7.75;2.17;;;16.90;74.40;;;;;;5054507;28;20036;-86
2021/12/28 10:13:19;;;;;;;13.18;3.35;;;16.90;74.40;;;;;;5054423;28;20544;-86
2021/12/28 10:15:46;;;;;;;11.05;2.53;;;16.90;74.20;;;;;;5054541;28;20072;-90
2021/12/28 10:18:12;;;;;;;14.10;2.60;;;16.90;74.10;;;;;;5054492;28;20025;-90
2021/12/28 10:20:52;;;;;;;11.13;2.63;;;16.90;74.20;;;;;;5036692;28;20048;-87
2021/12/28 10:23:20;;;;;;;17.30;3.30;;;16.90;74.20;;;;;;5054444;28;20052;-89
2021/12/28 10:25:50;;;;;;;10.93;3.13;;;16.90;74.20;;;;;;5036559;28;20017;-87
2021/12/28 10:28:20;;;;;;;16.67;3.80;;;16.90;74.20;;;;;;5054479;28;20021;-89
2021/12/28 10:31:00;;;;;;;11.20;3.33;;;16.90;74.10;;;;;;5036481;28;20071;-89
2021/12/28 10:33:29;;;;;;;13.80;3.58;;;16.90;74.20;;;;;;5053833;28;20033;-88
2021/12/28 10:36:01;;;;;;;15.95;3.95;;;16.90;74.10;;;;;;5054001;28;20021;-81
2021/12/28 10:38:31;;;;;;;14.30;3.72;;;16.90;73.70;;;;;;5053951;28;20037;-87
2021/12/28 10:41:09;;;;;;;16.02;4.20;;;16.90;73.40;;;;;;5036432;28;20412;-86
2021/12/28 10:43:37;;;;;;;14.05;3.70;;;17.00;73.20;;;;;;5053904;28;20039;-84
2021/12/28 10:46:11;;;;;;;15.90;3.85;;;;;;;;;;5053376;28;20032;-89
2021/12/28 10:48:39;;;;;;;16.98;3.95;;;;;;;;;;5053816;28;20392;-89
2021/12/28 10:51:13;;;;;;;15.95;3.53;;;;;;;;;;5053875;28;20017;-88
2021/12/28 10:56:23;;;;;;;17.65;3.60;;;;;;;;;;5053745;28;20472;-88
2021/12/28 10:58:50;;;;;;;16.23;4.13;;;;;;;;;;5053897;28;20063;-88
2021/12/28 11:01:23;;;;;;;21.17;4.53;;;;;;;;;;5053811;28;20040;-89
2021/12/28 11:03:52;;;;;;;20.77;4.70;;;;;;;;;;5053719;28;20033;-89
2021/12/28 11:06:20;;;;;;;11.30;4.05;;;;;;;;;;5053729;28;20040;-87
2021/12/28 11:08:47;;;;;;;19.05;5.22;;;;;;;;;;5053594;28;20064;-86
2021/12/28 11:11:14;;;;;;;20.77;4.50;;;;;;;;;;5035755;28;20033;-88
2021/12/28 11:13:41;;;;;;;16.48;4.30;;;;;;;;;;5053040;28;20043;-88
2021/12/28 11:16:08;;;;;;;17.08;4.80;;;;;;;;;;5035568;28;20025;-85
2021/12/28 11:18:36;;;;;;;17.58;3.92;;;;;;;;;;5053406;28;20031;-86
2021/12/28 11:21:10;;;;;;;16.45;4.50;;;;;;;;;;5053673;28;20032;-87
2021/12/28 11:23:36;;;;;;;20.23;4.45;;;;;;;;;;5035408;28;20040;-88
2021/12/28 11:26:02;;;;;;;15.93;4.25;;;;;;;;;;5053483;28;20036;-89
2021/12/28 11:28:29;;;;;;;17.55;4.55;;;;;;;;;;5053263;28;20017;-88
2021/12/28 11:31:14;;;;;;;18.90;4.07;;;;;;;;;;5035741;28;20033;-87
2021/12/28 11:33:45;;;;;;;18.58;4.35;;;;;;;;;;5053087;28;20041;-90
2021/12/28 11:36:12;;;;;;;21.85;5.63;;;;;;;;;;5035421;28;20021;-90
2021/12/28 11:38:38;;;;;;;21.20;4.65;;;;;;;;;;5052897;28;20032;-86
2021/12/28 11:41:05;;;;;;;14.93;3.67;;;;;;;;;;5053383;28;20025;-88
2021/12/28 11:43:33;;;;;;;16.13;3.90;;;;;;;;;;5052945;28;20095;-85
2021/12/28 11:45:59;;;;;;;18.05;3.97;;;;;;;;;;5052243;28;20032;-90
2021/12/28 11:48:25;;;;;;;13.38;4.03;;;;;;;;;;5035161;28;20029;-86
2021/12/28 11:50:52;;;;;;;14.40;3.90;;;;;;;;;;5034978;28;20430;-88
2021/12/28 11:53:18;;;;;;;15.60;3.92;;;;;;;;;;5052339;28;20127;-87
2021/12/28 11:55:44;;;;;;;21.33;4.78;;;;;;;;;;5052347;28;20021;-87
2021/12/28 11:58:10;;;;;;;12.52;4.40;;;;;;;;;;5052720;28;20040;-89
2021/12/28 12:00:41;;;;;;;21.05;4.55;;;;;;;;;;5035017;28;20032;-83
2021/12/28 12:03:07;;;;;;;17.88;5.95;;;;;;;;;;5052742;28;20472;-85
2021/12/28 12:05:34;;;;;;;18.80;4.97;;;;;;;;;;5052696;28;20024;-89
2021/12/28 12:08:13;;;;;;;18.70;4.25;;;;;;;;;;5052462;28;20036;-91
2021/12/28 12:10:41;;;;;;;16.63;4.05;;;;;;;;;;5052460;28;20491;-86
2021/12/28 12:13:07;;;;;;;18.77;4.78;;;;;;;;;;5034601;28;20041;-83
2021/12/28 12:15:38;;;;;;;16.85;4.78;;;;;;;;;;5035084;28;20031;-85
2021/12/28 12:18:04;;;;;;;19.35;4.68;;;;;;;;;;5052680;28;20032;-88
2021/12/28 12:20:33;;;;;;;17.58;4.47;;;;;;;;;;5034589;28;20075;-88
2021/12/28 12:23:08;;;;;;;19.17;4.05;;;;;;;;;;5034665;28;20447;-87
2021/12/28 12:25:45;;;;;;;16.67;5.03;;;;;;;;;;5052580;28;20044;-85
2021/12/28 12:28:12;;;;;;;17.42;4.78;;;;;;;;;;5052280;28;20291;-88
2021/12/28 12:30:44;;;;;;;16.55;4.80;;;;;;;;;;5052303;28;20036;-79
2021/12/28 12:33:10;;;;;;;17.08;4.65;;;;;;;;;;5052044;28;20127;-85
2021/12/28 12:35:41;;;;;;;18.65;4.53;;;;;;;;;;5052492;28;20025;-89
2021/12/28 12:38:13;;;;;;;17.42;4.57;;;;;;;;;;5052708;28;20033;-87
2021/12/28 12:40:59;;;;;;;17.48;4.47;;;;;;;;;;5052153;28;20017;-81
2021/12/28 12:43:28;;;;;;;18.27;5.38;;;;;;;;;;5052290;28;20032;-88
2021/12/28 12:45:54;;;;;;;21.85;5.50;;;;;;;;;;5034694;28;20476;-89
2021/12/28 12:48:36;;;;;;;16.63;4.28;;;;;;;;;;5034672;28;20040;-88
2021/12/28 12:51:23;;;;;;;19.80;4.68;;;;;;;;;;5052353;28;20065;-89
2021/12/28 12:53:50;;;;;;;17.08;4.82;;;;;;;;;;5052395;28;20056;-89
2021/12/28 12:56:18;;;;;;;16.30;4.15;;;;;;;;;;5053824;28;20555;-88
2021/12/28 12:58:46;;;;;;;15.05;4.50;;;;;;;;;;5056230;28;20104;-89
2021/12/28 13:01:27;;;;;;;17.23;4.20;;;;;;;;;;5056130;28;20052;-87
2021/12/28 13:03:58;;;;;;;18.05;5.32;;;;;;;;;;5055785;28;20484;-90
2021/12/28 13:06:36;;;;;;;18.85;4.82;;;;;;;;;;5055924;28;20029;-89
2021/12/28 13:09:05;;;;;;;16.83;4.85;;;;;;;;;;5055890;28;20025;-90